Time;durP1;ratioP1;P1;durP2;ratioP2;P2;SDS_P1;SDS_P2;PMS_P1;PMS_P2;Temp;Humidity;BMP_temperature;BMP_pressure;BME280_temperature;BME280_humidity;BME280_pressure;Samples;Min_cycle;Max_cycle;Signal;HPM_P1;HPM_P2
2021/12/22 00:00:34;;;;;;;6.58;3.25;;;;;;;-12.86;100.00;101093.38;1726954;82;21068;-85
2021/12/22 00:03:09;;;;;;;4.42;2.30;;;;;;;-12.84;100.00;101096.77;1726615;81;20999;-84
2021/12/22 00:05:43;;;;;;;6.85;2.70;;;;;;;-12.84;100.00;101095.51;1726949;81;21095;-85
2021/12/22 00:08:05;;;;;;;8.23;3.80;;;;;;;-12.85;100.00;101089.66;1723520;81;21078;-85
2021/12/22 00:10:32;;;;;;;7.70;3.25;;;;;;;-12.83;100.00;101099.72;1681120;83;21000;-83
2021/12/22 00:12:59;;;;;;;5.22;2.90;;;;;;;-12.81;100.00;101097.25;1726996;83;21054;-83
2021/12/22 00:15:26;;;;;;;5.87;2.98;;;;;;;-12.81;100.00;101099.75;1727221;82;21526;-85
2021/12/22 00:17:55;;;;;;;6.40;2.75;;;;;;;-12.82;100.00;101111.46;1726738;81;21586;-84
2021/12/22 00:20:21;;;;;;;9.25;3.90;;;;;;;-12.86;100.00;101102.16;1727138;82;21129;-84
2021/12/22 00:22:48;;;;;;;4.80;3.20;;;;;;;-12.88;100.00;101102.09;1703956;83;21081;-86
2021/12/22 00:25:16;;;;;;;5.58;2.52;;;;;;;-12.88;100.00;101108.36;1726979;81;21046;-84
2021/12/22 00:27:43;;;;;;;5.30;2.70;;;;;;;-12.86;100.00;101104.67;1726929;81;21011;-84
2021/12/22 00:30:11;;;;;;;8.00;3.47;;;;;;;-12.86;100.00;101107.17;1703848;82;21071;-85
2021/12/22 00:32:39;;;;;;;6.80;3.15;;;;;;;-12.87;100.00;101107.98;1703895;83;21062;-83
2021/12/22 00:35:09;;;;;;;8.65;3.02;;;;;;;-12.87;100.00;101107.98;1726626;81;21158;-84
2021/12/22 00:37:37;;;;;;;7.35;3.58;;;;;;;-12.86;100.00;101109.69;1726535;82;21065;-85
2021/12/22 00:40:07;;;;;;;5.47;3.15;;;;;;;-12.81;100.00;101108.15;1726679;81;21535;-86
2021/12/22 00:42:36;;;;;;;10.40;4.10;;;;;;;-12.73;100.00;101113.36;1703264;81;21022;-84
2021/12/22 00:45:05;;;;;;;8.38;2.80;;;;;;;-12.70;100.00;101108.03;1726391;81;21085;-84
2021/12/22 00:47:33;;;;;;;9.03;3.60;;;;;;;-12.70;100.00;101105.52;1726840;82;21165;-85
2021/12/22 00:50:01;;;;;;;6.95;3.15;;;;;;;-12.65;100.00;101116.11;1726758;81;21495;-86
2021/12/22 00:52:29;;;;;;;7.47;3.30;;;;;;;-12.63;100.00;101115.75;1726909;81;21575;-84
2021/12/22 00:54:56;;;;;;;7.12;3.47;;;;;;;-12.61;100.00;101117.48;1726957;81;21038;-84
2021/12/22 00:57:23;;;;;;;10.48;3.22;;;;;;;-12.61;100.00;101114.98;1704260;83;21010;-83
2021/12/22 00:59:50;;;;;;;6.65;2.62;;;;;;;-12.58;100.00;101120.48;1726921;81;21120;-84
2021/12/22 01:02:20;;;;;;;8.33;3.05;;;;;;;-12.58;100.00;101119.23;1726750;82;21539;-84
2021/12/22 01:04:47;;;;;;;5.50;3.20;;;;;;;-12.57;100.00;101117.17;1726879;81;21527;-84
2021/12/22 01:07:15;;;;;;;4.33;2.25;;;;;;;-12.59;100.00;101113.76;1726886;81;21017;-84
2021/12/22 01:09:43;;;;;;;5.92;3.40;;;;;;;-12.62;100.00;101116.20;1726842;82;21003;-84
2021/12/22 01:12:12;;;;;;;10.58;3.17;;;;;;;-12.64;100.00;101117.81;1727248;83;21110;-84
2021/12/22 01:14:40;;;;;;;6.53;3.62;;;;;;;-12.67;100.00;101118.97;1726804;81;21026;-85
2021/12/22 01:17:11;;;;;;;10.48;5.72;;;;;;;-12.72;100.00;101125.97;1725561;81;21392;-85
2021/12/22 01:19:49;;;;;;;;;;;;;;;-12.73;100.00;101132.18;1724626;81;21005;-87
2021/12/22 01:22:22;;;;;;;8.90;3.37;;;;;;;-12.77;100.00;101131.24;1698917;81;20202;-86
2021/12/22 01:24:36;;;;;;;8.38;3.77;;;;;;;-12.78;100.00;101138.35;1721587;81;21149;-86
2021/12/22 01:27:07;;;;;;;8.80;3.83;;;;;;;-12.80;100.00;101132.81;1725435;81;21048;-86
2021/12/22 01:29:39;;;;;;;8.48;4.25;;;;;;;-12.81;100.00;101141.14;1721929;81;21659;-85
2021/12/22 01:32:12;;;;;;;11.20;4.30;;;;;;;-12.81;100.00;101138.25;1737689;81;21016;-85
2021/12/22 01:34:41;;;;;;;9.83;4.97;;;;;;;-12.79;100.00;101138.28;1757223;80;21031;-86
2021/12/22 01:37:08;;;;;;;11.88;6.12;;;;;;;-12.80;100.00;101146.23;1757156;80;21110;-87
2021/12/22 01:39:35;;;;;;;10.90;5.70;;;;;;;-12.80;100.00;101142.47;1757125;80;21016;-86
2021/12/22 01:42:05;;;;;;;11.93;6.42;;;;;;;-12.79;100.00;101139.16;1757306;80;21648;-86
2021/12/22 01:44:59;;;;;;;6.83;3.42;;;;;;;-12.75;100.00;101141.34;1756768;81;21774;-85
2021/12/22 01:50:06;;;;;;;11.50;5.75;;;;;;;-12.72;100.00;101145.17;1705039;82;22276;-84
2021/12/22 01:52:35;;;;;;;9.50;4.00;;;;;;;-12.74;100.00;101145.14;1674099;84;21078;-85
2021/12/22 01:55:13;;;;;;;10.35;3.98;;;;;;;-12.75;100.00;101148.45;1719998;81;21530;-84
2021/12/22 01:57:46;;;;;;;2.20;1.52;;;;;;;-12.75;100.00;101149.70;1684996;84;21092;-85
2021/12/22 02:00:17;;;;;;;5.60;2.98;;;;;;;-12.75;100.00;101151.38;1685648;83;21116;-85
2021/12/22 02:02:44;;;;;;;3.72;1.92;;;;;;;-12.75;100.00;101147.62;1732724;81;21864;-85
2021/12/22 02:05:11;;;;;;;6.85;3.50;;;;;;;-12.75;100.00;101137.58;1697837;83;21073;-84
2021/12/22 02:07:39;;;;;;;7.00;3.80;;;;;;;-12.74;100.00;101146.81;1689270;83;21089;-85
2021/12/22 02:12:45;;;;;;;9.13;3.08;;;;;;;-12.72;100.00;101141.03;1719737;83;21550;-87
2021/12/22 02:15:08;;;;;;;6.80;2.40;;;;;;;-12.71;100.00;101147.75;1659183;83;21644;-84
2021/12/22 02:17:39;;;;;;;4.40;2.58;;;;;;;-12.71;100.00;101146.88;1732679;81;21037;-84
2021/12/22 02:20:06;;;;;;;6.40;2.90;;;;;;;-12.71;100.00;101147.75;1686888;84;21093;-84
2021/12/22 02:22:39;;;;;;;5.75;2.27;;;;;;;-12.70;100.00;101158.63;1689584;83;21578;-88
2021/12/22 02:25:13;;;;;;;3.77;2.22;;;;;;;-12.72;100.00;101158.97;1728863;81;21051;-84
2021/12/22 02:27:41;;;;;;;3.33;2.30;;;;;;;-12.73;100.00;101161.90;1689206;83;21231;-85
2021/12/22 02:30:06;;;;;;;5.87;2.75;;;;;;;-12.73;100.00;101162.28;1685995;83;21037;-86
2021/12/22 02:33:09;;;;;;;5.30;2.65;;;;;;;-12.73;100.00;101162.28;1699565;82;20994;-86
2021/12/22 02:35:46;;;;;;;9.65;3.85;;;;;;;-12.71;100.00;101168.20;1731930;82;21038;-86
2021/12/22 02:38:17;;;;;;;6.22;2.67;;;;;;;-12.69;100.00;101168.69;1734376;82;21538;-86
2021/12/22 02:40:49;;;;;;;5.78;2.83;;;;;;;-12.65;100.00;101170.05;1731598;82;21150;-86
2021/12/22 02:43:21;;;;;;;6.28;3.27;;;;;;;-12.64;100.00;101171.76;1732179;82;21630;-87
2021/12/22 02:45:46;;;;;;;5.70;2.80;;;;;;;-12.65;100.00;101160.85;1734606;82;21046;-87
2021/12/22 02:48:13;;;;;;;2.80;1.95;;;;;;;-12.65;100.00;101168.80;1752050;81;21029;-86
2021/12/22 02:50:42;;;;;;;8.10;2.92;;;;;;;-12.64;100.00;101172.59;1764990;81;21523;-87
2021/12/22 02:53:13;;;;;;;11.65;3.60;;;;;;;-12.65;100.00;101174.66;1764818;81;21124;-88
2021/12/22 02:55:56;;;;;;;9.08;2.98;;;;;;;-12.63;100.00;101178.06;1761683;81;21823;-86
2021/12/22 02:58:38;;;;;;;6.15;2.72;;;;;;;-12.63;100.00;101181.83;1761915;81;21684;-86
2021/12/22 03:06:24;;;;;;;8.15;3.85;;;;;;;-12.64;100.00;101185.55;1743082;81;21132;-85
2021/12/22 03:08:45;;;;;;;6.30;2.22;;;;;;;-12.67;100.00;101198.87;1760882;81;21089;-85
2021/12/22 03:11:12;;;;;;;6.25;2.90;;;;;;;-12.70;100.00;101194.59;1763772;81;20979;-86
2021/12/22 03:13:39;;;;;;;9.33;3.55;;;;;;;-12.72;100.00;101194.97;1765110;81;21017;-86
2021/12/22 03:16:07;;;;;;;6.37;2.62;;;;;;;-12.73;100.00;101199.53;1765097;81;21680;-87
2021/12/22 03:18:35;;;;;;;5.28;2.40;;;;;;;-12.71;100.00;101209.22;1765333;80;21836;-86
2021/12/22 03:21:19;;;;;;;8.13;3.15;;;;;;;-12.70;100.00;101213.41;1743341;81;21591;-86
2021/12/22 03:23:30;;;;;;;4.10;2.40;;;;;;;-12.69;100.00;101208.84;1734592;82;21171;-89
2021/12/22 03:25:58;;;;;;;8.10;3.80;;;;;;;-12.69;100.00;101212.60;1713866;82;21053;-90
2021/12/22 03:28:25;;;;;;;10.95;3.67;;;;;;;-12.71;100.00;101220.51;1734808;81;21248;-87
2021/12/22 03:30:53;;;;;;;4.53;2.62;;;;;;;-12.71;100.00;101229.67;1735129;82;21088;-87
2021/12/22 03:33:22;;;;;;;9.85;3.25;;;;;;;-12.73;100.00;101227.13;1744580;81;20991;-86
2021/12/22 03:35:49;;;;;;;4.47;2.65;;;;;;;-12.73;100.00;101226.26;1750623;81;21091;-86
2021/12/22 03:38:16;;;;;;;5.67;2.55;;;;;;;-12.74;100.00;101224.17;1750741;82;21038;-86
2021/12/22 03:40:43;;;;;;;3.70;2.30;;;;;;;-12.73;100.00;101227.52;1750864;82;22165;-87
2021/12/22 03:43:10;;;;;;;4.45;2.42;;;;;;;-12.73;100.00;101231.28;1750819;82;21101;-87
2021/12/22 03:45:37;;;;;;;7.65;4.00;;;;;;;-12.75;100.00;101223.72;1750633;82;21030;-86
2021/12/22 03:48:04;;;;;;;4.97;3.25;;;;;;;-12.75;100.00;101228.73;1720841;82;21629;-86
2021/12/22 03:50:31;;;;;;;4.03;1.85;;;;;;;-12.72;100.00;101231.34;1750854;82;21128;-86
2021/12/22 03:52:58;;;;;;;5.95;2.90;;;;;;;-12.73;100.00;101239.67;1723791;80;21041;-86
2021/12/22 03:55:25;;;;;;;3.83;2.37;;;;;;;-12.77;100.00;101235.35;1751133;80;21139;-87
2021/12/22 03:57:53;;;;;;;4.08;2.60;;;;;;;-12.79;100.00;101246.15;1751529;79;21894;-87
2021/12/22 04:00:21;;;;;;;3.62;2.62;;;;;;;-12.81;100.00;101252.38;1752758;80;21839;-86
2021/12/22 04:02:48;;;;;;;6.67;3.08;;;;;;;-12.82;100.00;101256.95;1750699;80;21046;-85
2021/12/22 04:05:18;;;;;;;9.83;3.33;;;;;;;-12.82;100.00;101254.44;1751056;80;21512;-86
2021/12/22 04:07:46;;;;;;;7.80;3.47;;;;;;;-12.80;100.00;101257.86;1750709;80;21613;-85
2021/12/22 04:10:21;;;;;;;5.67;2.95;;;;;;;-12.79;100.00;101254.55;1750132;80;21057;-86
2021/12/22 04:12:55;;;;;;;4.97;1.65;;;;;;;-12.77;100.00;101257.93;1721439;80;21034;-87
2021/12/22 04:15:26;;;;;;;5.40;2.40;;;;;;;-12.77;100.00;101260.44;1781770;80;21026;-87
2021/12/22 04:17:54;;;;;;;4.72;2.35;;;;;;;-12.76;100.00;101262.56;1781528;80;21140;-87
2021/12/22 04:20:22;;;;;;;6.62;3.42;;;;;;;-12.76;100.00;101263.81;1751078;80;21047;-87
2021/12/22 04:22:48;;;;;;;15.23;3.22;;;;;;;-12.74;100.00;101260.96;1781705;80;21042;-86
2021/12/22 04:25:22;;;;;;;7.92;3.60;;;;;;;-12.73;100.00;101264.76;1781725;80;21025;-87
2021/12/22 04:27:55;;;;;;;7.92;4.15;;;;;;;-12.70;100.00;101269.02;1750993;80;21176;-87
2021/12/22 04:30:24;;;;;;;6.65;4.50;;;;;;;-12.70;100.00;101268.59;1752861;80;21026;-86
2021/12/22 04:32:52;;;;;;;9.00;4.72;;;;;;;-12.65;100.00;101272.92;1771141;80;21143;-85
2021/12/22 04:35:19;;;;;;;7.42;4.70;;;;;;;-12.64;100.00;101275.88;1746093;80;21034;-86
2021/12/22 04:37:46;;;;;;;6.30;3.40;;;;;;;-12.62;100.00;101278.05;1746094;80;21074;-85
2021/12/22 04:40:14;;;;;;;7.67;4.20;;;;;;;-12.59;100.00;101280.25;1727487;80;21563;-85
2021/12/22 04:42:43;;;;;;;10.20;5.20;;;;;;;-12.56;100.00;101278.23;1743057;80;21129;-85
2021/12/22 04:45:12;;;;;;;7.17;2.62;;;;;;;-12.57;100.00;101290.32;1731347;80;21830;-87
2021/12/22 04:47:40;;;;;;;4.78;2.80;;;;;;;-12.60;100.00;101286.06;1716110;81;21073;-85
2021/12/22 04:50:15;;;;;;;4.60;2.30;;;;;;;-12.61;100.00;101289.76;1728892;80;21093;-86
2021/12/22 04:52:53;;;;;;;8.75;3.47;;;;;;;-12.63;100.00;101298.92;1735182;80;21137;-87
2021/12/22 04:55:16;;;;;;;6.60;3.50;;;;;;;-12.61;100.00;101296.91;1744197;81;21046;-86
2021/12/22 04:57:45;;;;;;;6.08;2.90;;;;;;;-12.58;100.00;101301.16;1731083;81;21397;-86
2021/12/22 05:00:15;;;;;;;6.62;2.45;;;;;;;-12.55;100.00;101310.05;1730807;82;21152;-86
2021/12/22 05:02:43;;;;;;;;;;;;;;;-12.53;100.00;101300.89;1754133;80;21010;-86
2021/12/22 05:05:11;;;;;;;6.70;3.98;;;;;;;-12.53;100.00;101305.91;1751007;80;20257;-85
2021/12/22 05:07:38;;;;;;;5.22;3.37;;;;;;;-12.52;100.00;101305.10;1746069;80;21051;-85
2021/12/22 05:10:07;;;;;;;6.20;3.58;;;;;;;-12.50;100.00;101311.45;1746011;80;21171;-85
2021/12/22 05:12:36;;;;;;;13.68;4.30;;;;;;;-12.48;100.00;101314.83;1745751;80;21046;-84
2021/12/22 05:15:05;;;;;;;8.33;3.50;;;;;;;-12.45;100.00;101315.77;1746058;80;21611;-84
2021/12/22 05:20:12;;;;;;;42.50;12.03;;;;;;;-12.32;100.00;101316.16;1753292;80;21560;-85
2021/12/22 05:22:44;;;;;;;15.88;4.12;;;;;;;-12.37;100.00;101319.38;1705150;81;21137;-86
2021/12/22 05:25:12;;;;;;;3.98;2.17;;;;;;;-12.37;100.00;101325.65;1714462;82;20991;-85
2021/12/22 05:27:40;;;;;;;6.78;3.00;;;;;;;-12.38;100.00;101333.98;1731167;80;21062;-86
2021/12/22 05:30:11;;;;;;;8.00;3.62;;;;;;;-12.41;100.00;101331.39;1745803;80;21631;-85
2021/12/22 05:32:39;;;;;;;6.75;2.52;;;;;;;-12.41;100.00;101335.16;1745679;80;21477;-86
2021/12/22 05:35:09;;;;;;;16.15;5.45;;;;;;;-12.40;100.00;101338.13;1745981;81;21794;-88
2021/12/22 05:37:39;;;;;;;6.20;3.08;;;;;;;-12.39;100.00;101338.97;1742652;80;21035;-86
2021/12/22 05:40:09;;;;;;;9.40;4.92;;;;;;;-12.40;100.00;101337.25;1746321;80;21007;-86
2021/12/22 05:42:38;;;;;;;3.85;2.35;;;;;;;-12.40;100.00;101351.93;1746595;80;21015;-84
2021/12/22 05:45:06;;;;;;;5.62;2.40;;;;;;;-12.40;100.00;101348.16;1745671;80;21031;-84
2021/12/22 05:47:33;;;;;;;7.65;3.12;;;;;;;-12.39;100.00;101347.75;1746054;80;21555;-83
2021/12/22 05:50:04;;;;;;;6.85;3.33;;;;;;;-12.38;100.00;101351.55;1756119;81;21626;-84
2021/12/22 05:52:31;;;;;;;4.35;2.22;;;;;;;-12.35;100.00;101343.29;1746071;81;21057;-85
2021/12/22 05:54:58;;;;;;;6.22;2.85;;;;;;;-12.33;100.00;101344.16;1745594;80;21145;-87
2021/12/22 05:57:25;;;;;;;7.05;2.95;;;;;;;-12.29;100.00;101357.66;1731150;81;21038;-85
2021/12/22 05:59:51;;;;;;;8.65;1.90;;;;;;;-12.26;100.00;101354.00;1756576;80;21517;-85
2021/12/22 06:02:19;;;;;;;6.95;2.55;;;;;;;-12.23;100.00;101356.62;1745897;81;21006;-85
2021/12/22 06:04:45;;;;;;;4.42;2.85;;;;;;;-12.22;100.00;101348.28;1745993;81;21540;-85
2021/12/22 06:07:12;;;;;;;5.25;2.25;;;;;;;-12.19;100.00;101355.05;1746055;82;21039;-86
2021/12/22 06:09:39;;;;;;;6.92;3.52;;;;;;;-12.16;100.00;101361.02;1746088;82;21050;-87
2021/12/22 06:12:07;;;;;;;4.60;2.10;;;;;;;-12.09;100.00;101354.49;1746199;82;21136;-84
2021/12/22 06:14:34;;;;;;;4.80;2.75;;;;;;;-12.02;100.00;101363.07;1743051;80;21519;-86
2021/12/22 06:17:02;;;;;;;9.08;3.12;;;;;;;-11.99;100.00;101356.48;1705047;81;21026;-84
2021/12/22 06:19:28;;;;;;;6.42;2.77;;;;;;;-11.96;100.00;101366.59;1716384;81;21062;-86
2021/12/22 06:21:56;;;;;;;51.33;17.37;;;;;;;-11.85;100.00;101371.93;1716245;81;20987;-85
2021/12/22 06:24:23;;;;;;;76.67;28.40;;;;;;;-11.76;100.00;101373.45;1716341;81;21129;-84
2021/12/22 06:26:50;;;;;;;22.60;10.28;;;;;;;-11.70;100.00;101376.94;1716273;83;21022;-86
2021/12/22 06:29:17;;;;;;;8.53;4.62;;;;;;;-11.59;100.00;101377.69;1716432;81;21540;-86
2021/12/22 06:31:43;;;;;;;10.63;3.77;;;;;;;-11.55;100.00;101381.14;1720180;80;21645;-87
2021/12/22 06:34:10;;;;;;;6.97;3.33;;;;;;;-11.53;100.00;101378.27;1730710;81;21062;-85
2021/12/22 06:36:39;;;;;;;17.77;7.95;;;;;;;-11.51;100.00;101384.20;1745362;80;21139;-89
2021/12/22 06:39:09;;;;;;;27.05;11.68;;;;;;;-11.37;100.00;101376.18;1744494;82;20939;-87
2021/12/22 06:41:36;;;;;;;12.88;4.95;;;;;;;-11.26;100.00;101386.14;1703498;81;21132;-88
2021/12/22 06:44:05;;;;;;;20.30;8.23;;;;;;;-11.23;100.00;101385.36;1724397;80;21105;-87
2021/12/22 06:46:33;;;;;;;8.28;3.72;;;;;;;-11.19;100.00;101389.64;1716409;82;21074;-87
2021/12/22 06:49:03;;;;;;;10.90;5.20;;;;;;;-11.15;100.00;101385.16;1701681;81;21058;-86
2021/12/22 06:51:30;;;;;;;7.72;3.42;;;;;;;-11.13;100.00;101390.67;1716180;83;21105;-86
2021/12/22 06:53:58;;;;;;;10.15;4.10;;;;;;;-11.10;100.00;101394.54;1723060;81;21069;-85
2021/12/22 06:56:25;;;;;;;7.67;4.28;;;;;;;-11.07;100.00;101397.53;1745269;80;21468;-85
2021/12/22 06:58:52;;;;;;;8.10;4.35;;;;;;;-11.04;100.00;101397.59;1731410;82;21035;-85
2021/12/22 07:01:21;;;;;;;8.03;2.87;;;;;;;-11.01;100.00;101391.78;1734352;80;21071;-84
2021/12/22 07:03:48;;;;;;;12.93;4.72;;;;;;;-10.98;100.00;101397.78;1732897;80;21077;-85
2021/12/22 07:06:16;;;;;;;29.67;5.97;;;;;;;-10.95;100.00;101400.36;1748179;80;21011;-85
2021/12/22 07:09:12;;;;;;;4.72;2.45;;;;;;;-10.94;100.00;101402.06;1749237;80;21520;-84
2021/12/22 07:11:39;;;;;;;7.55;4.03;;;;;;;-10.93;100.00;101396.61;1746931;80;21133;-84
2021/12/22 07:14:08;;;;;;;7.60;3.45;;;;;;;-10.92;100.00;101399.58;1772729;79;39547;-85
2021/12/22 07:16:37;;;;;;;10.15;5.05;;;;;;;-10.88;100.00;101397.60;1772427;79;21497;-86
2021/12/22 07:19:04;;;;;;;38.25;8.50;;;;;;;-10.82;100.00;101402.78;1748981;79;21121;-86
2021/12/22 07:21:32;;;;;;;8.00;3.52;;;;;;;-10.64;100.00;101400.28;1772336;79;21496;-82
2021/12/22 07:23:59;;;;;;;11.80;4.35;;;;;;;-10.51;100.00;101402.70;1772298;79;21556;-85
2021/12/22 07:26:26;;;;;;;8.45;3.83;;;;;;;-10.43;100.00;101401.61;1772451;79;21789;-88
2021/12/22 07:28:53;;;;;;;12.85;6.42;;;;;;;-10.42;100.00;101402.92;1772434;80;21038;-85
2021/12/22 07:31:20;;;;;;;21.87;8.28;;;;;;;-10.35;100.00;101401.35;1772292;81;21932;-86
2021/12/22 07:34:14;;;;;;;56.33;22.35;;;;;;;-10.36;100.00;101405.94;1772354;79;21018;-85
2021/12/22 07:37:04;;;;;;;87.55;33.95;;;;;;;-10.38;100.00;101413.50;1735574;80;21555;-85
2021/12/22 07:39:32;;;;;;;9.43;4.62;;;;;;;-10.37;100.00;101416.86;1725301;80;21923;-85
2021/12/22 07:41:59;;;;;;;16.45;7.10;;;;;;;-10.39;100.00;101415.58;1745961;80;20983;-86
2021/12/22 07:44:26;;;;;;;14.70;4.65;;;;;;;-10.37;100.00;101414.34;1727802;80;21067;-84
2021/12/22 07:46:53;;;;;;;17.32;8.08;;;;;;;-10.33;100.00;101421.14;1723920;81;21642;-83
2021/12/22 07:49:20;;;;;;;9.58;4.70;;;;;;;-10.21;100.00;101420.58;1729802;82;21340;-85
2021/12/22 07:51:47;;;;;;;4.92;2.15;;;;;;;-10.13;100.00;101421.61;1706714;82;21764;-85
2021/12/22 07:54:15;;;;;;;14.78;5.37;;;;;;;-10.08;100.00;101425.49;1742154;80;21614;-86
2021/12/22 07:56:42;;;;;;;19.42;9.43;;;;;;;-10.05;100.00;101421.38;1729142;82;21039;-86
2021/12/22 07:59:09;;;;;;;35.30;11.75;;;;;;;-10.04;100.00;101417.17;1727812;81;21049;-84
2021/12/22 08:01:36;;;;;;;7.78;4.03;;;;;;;-10.01;100.00;101416.83;1721167;81;21019;-83
2021/12/22 08:04:04;;;;;;;6.90;4.08;;;;;;;-9.97;100.00;101408.92;1737586;80;21128;-84
2021/12/22 08:06:31;;;;;;;71.95;16.37;;;;;;;-9.98;100.00;101419.85;1746748;80;21110;-84
2021/12/22 08:08:58;;;;;;;6.12;3.17;;;;;;;-10.00;100.00;101408.45;1745318;81;20992;-84
2021/12/22 08:11:25;;;;;;;7.55;4.03;;;;;;;-10.01;100.00;101427.33;1725326;80;21084;-85
2021/12/22 08:13:52;;;;;;;7.17;3.52;;;;;;;-10.04;100.00;101413.39;1745890;82;21062;-85
2021/12/22 08:16:19;;;;;;;5.58;3.08;;;;;;;-10.05;100.00;101412.55;1745402;82;21251;-84
2021/12/22 08:18:47;;;;;;;6.50;3.45;;;;;;;-10.02;100.00;101405.47;1745279;80;21037;-84
2021/12/22 08:21:13;;;;;;;10.98;3.62;;;;;;;-9.99;100.00;101410.16;1725935;81;21508;-85
2021/12/22 08:23:41;;;;;;;5.20;1.55;;;;;;;-9.95;100.00;101420.33;1742190;80;21108;-92
2021/12/22 08:26:08;;;;;;;6.45;3.10;;;;;;;-9.96;100.00;101418.20;1745474;80;21102;-86
2021/12/22 08:28:36;;;;;;;3.20;2.15;;;;;;;-9.88;100.00;101422.16;1745877;80;21012;-85
2021/12/22 08:31:03;;;;;;;7.62;3.30;;;;;;;-9.84;100.00;101423.91;1745244;80;21062;-85
2021/12/22 08:33:33;;;;;;;5.60;3.12;;;;;;;-9.83;100.00;101416.41;1744915;80;21011;-84
2021/12/22 08:38:50;;;;;;;23.30;7.35;;;;;;;-9.83;100.00;101421.45;1732039;80;21153;-86
2021/12/22 08:41:28;;;;;;;15.32;5.53;;;;;;;-9.86;100.00;101415.06;1702561;82;21163;-86
2021/12/22 08:43:58;;;;;;;22.87;6.25;;;;;;;-9.82;100.00;101415.98;1739552;80;21014;-86
2021/12/22 08:46:26;;;;;;;8.73;3.83;;;;;;;-9.73;100.00;101418.70;1739198;80;21042;-86
2021/12/22 08:48:58;;;;;;;8.33;4.47;;;;;;;-9.58;100.00;101403.45;1743962;80;21030;-86
2021/12/22 08:51:25;;;;;;;6.80;3.20;;;;;;;-9.48;100.00;101407.88;1720211;80;21548;-86
2021/12/22 08:53:53;;;;;;;7.03;3.75;;;;;;;-9.40;100.00;101404.22;1745237;80;21112;-84
2021/12/22 08:56:21;;;;;;;10.53;4.90;;;;;;;-9.34;100.00;101401.84;1711359;81;21086;-88
2021/12/22 08:58:48;;;;;;;7.85;4.22;;;;;;;-9.31;100.00;101405.67;1770156;79;21514;-89
2021/12/22 09:01:16;;;;;;;29.70;9.45;;;;;;;-9.26;100.00;101405.38;1730600;81;21093;-90
2021/12/22 09:03:43;;;;;;;10.30;4.17;;;;;;;-9.20;100.00;101410.53;1746238;80;21625;-88
2021/12/22 09:06:15;;;;;;;11.05;5.37;;;;;;;-9.17;100.00;101407.20;1732479;81;21111;-91
2021/12/22 09:08:46;;;;;;;13.80;6.45;;;;;;;-9.07;100.00;101401.52;1721404;81;21119;-87
2021/12/22 09:11:13;;;;;;;17.15;5.42;;;;;;;-8.98;100.00;101399.56;1760219;79;21108;-87
2021/12/22 09:13:41;;;;;;;9.43;5.37;;;;;;;-8.89;100.00;101399.73;1733753;80;21295;-86
2021/12/22 09:29:36;;;;;;;12.05;6.90;;;;;;;-8.65;100.00;101403.50;1832419;76;21898;-88
2021/12/22 09:32:05;;;;;;;6.87;3.70;;;;;;;-8.64;100.00;101396.36;1770635;78;21049;-87
2021/12/22 09:34:32;;;;;;;8.15;3.65;;;;;;;-8.65;100.00;101405.19;1754590;80;22279;-88
2021/12/22 09:37:00;;;;;;;7.28;3.72;;;;;;;-8.75;100.00;101402.50;1779836;79;22267;-87
2021/12/22 09:39:27;;;;;;;4.40;2.62;;;;;;;-8.80;100.00;101405.77;1769146;79;21021;-89
2021/12/22 10:11:23;;;;;;;5.42;3.42;;;;;;;-8.95;100.00;101408.45;1769823;80;22687;-85
2021/12/22 10:13:51;;;;;;;7.35;3.37;;;;;;;-9.09;100.00;101406.10;1713506;82;21065;-85
2021/12/22 10:16:27;;;;;;;5.85;3.92;;;;;;;-9.20;100.00;101402.95;1736960;81;21965;-87
2021/12/22 10:19:22;;;;;;;8.63;4.22;;;;;;;-9.29;100.00;101402.77;1705449;83;21029;-85
2021/12/22 10:21:52;;;;;;;7.35;3.77;;;;;;;-9.35;100.00;101396.36;1683855;82;21152;-87
2021/12/22 10:24:22;;;;;;;8.68;3.17;;;;;;;-9.29;100.00;101402.77;1695104;82;21494;-88
2021/12/22 10:27:02;;;;;;;6.62;3.52;;;;;;;-9.16;100.00;101399.20;1701621;82;21009;-87
2021/12/22 10:29:34;;;;;;;18.82;8.03;;;;;;;-9.03;100.00;101402.42;1718493;82;20959;-90
2021/12/22 10:32:12;;;;;;;12.85;4.45;;;;;;;-8.82;100.00;101384.67;1699407;82;21554;-88
2021/12/22 10:35:05;;;;;;;7.83;4.05;;;;;;;-8.64;100.00;101391.70;1724194;81;21093;-88
2021/12/22 10:37:43;;;;;;;5.85;2.77;;;;;;;-8.47;100.00;101397.89;1697124;82;21489;-86
2021/12/22 10:40:30;;;;;;;6.05;2.95;;;;;;;-8.42;100.00;101396.67;1726907;82;21049;-87
2021/12/22 10:43:01;;;;;;;3.30;1.82;;;;;;;-8.52;100.00;101404.95;1672925;83;21739;-89
2021/12/22 10:45:34;;;;;;;4.85;2.33;;;;;;;-8.67;100.00;101388.72;1599113;88;21541;-88
2021/12/22 10:50:59;;;;;;;5.47;2.70;;;;;;;-8.67;100.00;101406.83;1544622;89;21117;-90
2021/12/22 10:53:28;;;;;;;4.47;2.33;;;;;;;-8.61;100.00;101393.03;1595804;88;21647;-88
2021/12/22 10:55:57;;;;;;;4.40;2.27;;;;;;;-8.62;100.00;101407.34;1625125;86;21844;-92
2021/12/22 10:58:35;;;;;;;4.53;2.25;;;;;;;-8.62;100.00;101406.48;1622935;88;21087;-88
2021/12/22 11:01:12;;;;;;;2.62;1.90;;;;;;;-8.61;100.00;101414.50;1609413;86;21087;-91
2021/12/22 11:03:53;;;;;;;3.90;2.22;;;;;;;-8.63;100.00;101413.22;1627526;85;21082;-88
2021/12/22 11:06:28;;;;;;;16.37;4.83;;;;;;;-8.62;100.00;101402.69;1586346;88;21044;-89
2021/12/22 11:09:15;;;;;;;8.68;3.50;;;;;;;-8.62;100.00;101407.74;1618337;87;21161;-86
2021/12/22 11:11:50;;;;;;;3.30;2.33;;;;;;;-8.64;100.00;101410.25;1617091;87;21232;-87
2021/12/22 11:14:24;;;;;;;5.60;2.90;;;;;;;-8.69;100.00;101419.41;1580264;88;21135;-87
2021/12/22 11:17:14;;;;;;;6.95;3.72;;;;;;;-8.73;100.00;101414.72;1632841;84;21108;-86
2021/12/22 11:19:57;;;;;;;5.92;3.60;;;;;;;-8.74;100.00;101414.30;1601307;87;21079;-88
2021/12/22 11:22:59;;;;;;;6.22;2.40;;;;;;;-8.70;100.00;101411.42;1599113;87;21083;-90
2021/12/22 11:25:25;;;;;;;9.63;3.13;;;;;;;-8.65;100.00;101410.23;1607866;86;21067;-85
2021/12/22 11:27:53;;;;;;;5.90;3.62;;;;;;;-8.57;100.00;101418.37;1611735;87;21723;-87
2021/12/22 11:30:28;;;;;;;7.35;3.67;;;;;;;-8.47;100.00;101416.00;1604933;86;21091;-86
2021/12/22 11:32:59;;;;;;;8.13;3.10;;;;;;;-8.40;100.00;101422.39;1632233;87;21043;-87
2021/12/22 11:35:27;;;;;;;8.98;3.35;;;;;;;-8.33;100.00;101418.30;1625575;86;21155;-85
2021/12/22 11:37:55;;;;;;;6.80;3.42;;;;;;;-8.28;100.00;101428.48;1603879;88;21137;-85
2021/12/22 11:40:24;;;;;;;3.95;2.20;;;;;;;-8.21;100.00;101426.48;1610686;87;22330;-85
2021/12/22 11:42:52;;;;;;;16.65;6.72;;;;;;;-8.16;100.00;101423.59;1590319;87;21104;-87
2021/12/22 11:45:23;;;;;;;6.92;3.12;;;;;;;-8.14;100.00;101432.48;1579399;88;21083;-91
2021/12/22 11:47:53;;;;;;;10.50;6.22;;;;;;;-8.17;100.00;101423.16;1581678;89;22189;-86
2021/12/22 11:50:28;;;;;;;6.83;3.27;;;;;;;-8.21;100.00;101425.22;1585922;89;22190;-88
2021/12/22 11:53:08;;;;;;;8.43;4.40;;;;;;;-8.21;100.00;101429.43;1597367;87;21072;-87
2021/12/22 11:55:55;;;;;;;4.62;2.47;;;;;;;-8.17;100.00;101435.80;1548805;90;21211;-88
2021/12/22 11:58:26;;;;;;;6.87;3.62;;;;;;;-8.17;100.00;101443.80;1584577;88;21529;-85
2021/12/22 12:01:02;;;;;;;10.98;3.90;;;;;;;-8.30;100.00;101441.09;1616121;87;21159;-88
2021/12/22 12:03:37;;;;;;;6.53;3.33;;;;;;;-8.39;100.00;101442.20;1636639;86;21143;-87
2021/12/22 12:06:17;;;;;;;6.35;3.90;;;;;;;-8.44;100.00;101453.89;1589101;87;21064;-88
2021/12/22 12:08:58;;;;;;;4.92;2.52;;;;;;;-8.45;100.00;101452.22;1600497;88;21282;-89
2021/12/22 12:14:54;;;;;;;4.10;2.53;;;;;;;-8.44;100.00;101474.10;1633901;86;21858;-87
2021/12/22 12:23:29;;;;;;;3.62;2.42;;;;;;;-8.55;100.00;101466.38;1609513;88;21627;-86
2021/12/22 12:25:58;;;;;;;4.78;2.10;;;;;;;-8.53;100.00;101470.22;1579300;89;21125;-86
2021/12/22 12:28:26;;;;;;;2.10;1.55;;;;;;;-8.56;100.00;101472.25;1606764;87;21182;-86
2021/12/22 12:30:56;;;;;;;7.85;3.12;;;;;;;-8.60;100.00;101480.61;1592154;87;21040;-87
2021/12/22 12:33:31;;;;;;;5.62;3.15;;;;;;;-8.68;100.00;101482.98;1558590;90;21138;-87